createdAt,value
2023-06-12T00:00:41.610Z,38.94
2023-06-12T00:01:41.634Z,38.92
2023-06-12T00:02:41.703Z,39.15
2023-06-12T00:03:41.835Z,39.15
2023-06-12T00:04:41.636Z,39.38
2023-06-12T00:05:41.612Z,39.53
2023-06-12T00:06:44.913Z,39.53
2023-06-12T00:07:41.644Z,39.51
2023-06-12T00:08:41.650Z,39.44
2023-06-12T00:09:41.653Z,39.49
2023-06-12T00:10:41.639Z,39.49
2023-06-12T00:11:41.697Z,39.50
2023-06-12T00:12:41.666Z,39.52
2023-06-12T00:13:41.641Z,39.58
2023-06-12T00:15:41.649Z,39.63
2023-06-12T00:16:41.669Z,39.63
2023-06-12T00:17:41.689Z,39.66
2023-06-12T00:18:41.682Z,39.59
2023-06-12T00:19:41.623Z,39.61
2023-06-12T00:21:41.689Z,39.87
2023-06-12T00:22:41.673Z,39.93
2023-06-12T00:23:41.745Z,39.93
2023-06-12T00:24:41.643Z,39.95
2023-06-12T00:25:41.684Z,40.14
2023-06-12T00:26:41.674Z,39.91
2023-06-12T00:27:41.877Z,39.91
2023-06-12T00:28:41.721Z,39.81
2023-06-12T00:32:41.698Z,40.02
2023-06-12T00:33:41.704Z,40.31
2023-06-12T00:35:41.693Z,40.30
2023-06-12T00:36:41.698Z,40.30
2023-06-12T00:37:41.689Z,40.37
2023-06-12T00:38:41.742Z,40.68
2023-06-12T00:39:41.731Z,40.68
2023-06-12T00:40:41.736Z,41.08
2023-06-12T00:41:41.726Z,41.14
2023-06-12T00:42:41.710Z,41.14
2023-06-12T00:43:41.716Z,41.13
2023-06-12T00:44:41.733Z,41.40
2023-06-12T00:45:41.741Z,41.45
2023-06-12T00:46:41.717Z,41.52
2023-06-12T00:48:41.728Z,41.71
2023-06-12T00:49:41.795Z,41.70
2023-06-12T00:50:41.708Z,41.70
2023-06-12T00:52:41.748Z,41.49
2023-06-12T00:53:41.708Z,41.49
2023-06-12T00:57:41.733Z,41.50
2023-06-12T00:58:41.718Z,41.36
2023-06-12T00:59:41.783Z,41.55
2023-06-12T01:02:41.914Z,41.48
2023-06-12T01:06:41.770Z,41.69
2023-06-12T01:07:41.805Z,41.62
2023-06-12T01:08:41.819Z,41.79
2023-06-12T01:09:41.795Z,41.90
2023-06-12T01:10:41.825Z,42.03
2023-06-12T01:11:41.787Z,42.03
2023-06-12T01:12:41.811Z,42.04
2023-06-12T01:13:41.876Z,42.32
2023-06-12T01:14:41.822Z,42.52
2023-06-12T01:15:41.822Z,42.52
2023-06-12T01:16:41.878Z,42.70
2023-06-12T01:17:41.993Z,42.81
2023-06-12T01:18:41.829Z,42.85
2023-06-12T01:19:41.806Z,42.87
2023-06-12T01:22:41.853Z,42.82
2023-06-12T01:23:41.887Z,42.82
2023-06-12T01:24:41.820Z,42.95
2023-06-12T01:25:41.864Z,43.06
2023-06-12T01:26:41.934Z,43.10
2023-06-12T01:27:41.807Z,43.10
2023-06-12T01:28:41.839Z,43.28
2023-06-12T01:30:41.858Z,43.25
2023-06-12T01:31:41.903Z,43.25
2023-06-12T01:32:41.910Z,43.35
2023-06-12T01:33:41.858Z,43.64
2023-06-12T01:34:41.876Z,43.64
2023-06-12T01:35:41.847Z,43.72
2023-06-12T01:36:41.884Z,43.70
2023-06-12T01:37:41.856Z,43.70
2023-06-12T01:38:41.882Z,44.05
2023-06-12T01:39:41.888Z,44.05
2023-06-12T01:40:41.833Z,44.05
2023-06-12T01:41:41.897Z,43.91
2023-06-12T01:42:41.897Z,43.83
2023-06-12T01:44:41.875Z,43.91
2023-06-12T01:45:41.872Z,43.91
2023-06-12T01:46:41.946Z,43.76
2023-06-12T01:47:41.965Z,43.76
2023-06-12T01:49:41.889Z,43.66
2023-06-12T01:50:41.871Z,43.66
2023-06-12T01:51:41.916Z,43.65
2023-06-12T01:52:41.951Z,43.74
2023-06-12T01:53:41.892Z,43.58
2023-06-12T01:54:41.943Z,43.45
2023-06-12T01:55:41.896Z,43.45
2023-06-12T01:56:41.926Z,43.47
2023-06-12T01:57:41.944Z,43.42
2023-06-12T02:00:41.912Z,43.58
2023-06-12T02:01:41.972Z,43.77
2023-06-12T02:02:41.999Z,43.76
2023-06-12T02:03:41.966Z,43.79
2023-06-12T02:04:42.000Z,43.75
2023-06-12T02:05:41.932Z,43.75
2023-06-12T02:06:41.905Z,43.76
2023-06-12T02:09:41.969Z,43.71
2023-06-12T02:10:41.967Z,43.78
2023-06-12T02:11:41.922Z,43.64
2023-06-12T02:12:41.976Z,43.82
2023-06-12T02:13:41.979Z,43.94
2023-06-12T02:16:42.056Z,44.07
2023-06-12T02:19:41.920Z,44.05
2023-06-12T02:20:42.007Z,44.12
2023-06-12T02:22:42.036Z,44.23
2023-06-12T02:23:42.054Z,44.23
2023-06-12T02:24:41.934Z,44.31
2023-06-12T02:25:42.027Z,44.48
2023-06-12T02:26:42.018Z,44.34
2023-06-12T02:27:41.997Z,44.34
2023-06-12T02:28:42.020Z,44.75
2023-06-12T02:29:41.996Z,45.11
2023-06-12T02:31:42.046Z,45.35
2023-06-12T02:32:42.012Z,45.40
2023-06-12T02:34:42.051Z,45.41
2023-06-12T02:35:42.030Z,45.27
2023-06-12T02:36:42.043Z,45.39
2023-06-12T02:37:42.032Z,45.39
2023-06-12T02:38:42.054Z,45.38
2023-06-12T02:40:42.071Z,45.40
2023-06-12T02:41:42.050Z,45.40
2023-06-12T02:42:42.017Z,45.34
2023-06-12T02:43:42.067Z,45.59
2023-06-12T02:44:42.062Z,45.59
2023-06-12T02:45:42.045Z,45.83
2023-06-12T02:46:42.065Z,45.53
2023-06-12T02:47:42.046Z,45.71
2023-06-12T02:48:42.077Z,45.92
2023-06-12T02:49:42.060Z,45.92
2023-06-12T02:50:42.025Z,45.89
2023-06-12T02:51:42.074Z,45.72
2023-06-12T02:52:42.077Z,45.79
2023-06-12T02:54:42.047Z,45.67
2023-06-12T02:55:42.026Z,45.67
2023-06-12T02:56:42.052Z,45.76
2023-06-12T02:57:42.063Z,45.77
2023-06-12T02:59:42.104Z,45.92
2023-06-12T03:00:42.106Z,45.70
2023-06-12T03:01:42.178Z,45.78
2023-06-12T03:02:42.111Z,45.87
2023-06-12T03:03:42.132Z,45.74
2023-06-12T03:04:42.074Z,45.80
2023-06-12T03:05:42.125Z,45.99
2023-06-12T03:06:42.038Z,46.05
2023-06-12T03:07:42.120Z,46.15
2023-06-12T03:08:44.223Z,46.15
2023-06-12T03:09:42.126Z,46.40
2023-06-12T03:10:42.111Z,46.41
2023-06-12T03:14:42.149Z,46.44
2023-06-12T03:16:42.091Z,46.38
2023-06-12T03:17:42.169Z,46.51
2023-06-12T03:18:42.145Z,46.51
2023-06-12T03:19:42.104Z,46.38
2023-06-12T03:20:42.128Z,46.41
2023-06-12T03:21:42.126Z,46.41
2023-06-12T03:22:42.124Z,46.57
2023-06-12T03:24:42.094Z,46.56
2023-06-12T03:25:42.137Z,46.63
2023-06-12T03:26:42.128Z,46.84
2023-06-12T03:27:42.173Z,46.84
2023-06-12T03:29:42.116Z,46.87
2023-06-12T03:30:42.156Z,46.93
2023-06-12T03:31:42.308Z,46.93
2023-06-12T03:32:42.301Z,46.87
2023-06-12T03:33:42.152Z,47.01
2023-06-12T03:34:42.173Z,47.06
2023-06-12T03:37:42.144Z,47.23
2023-06-12T03:38:42.189Z,47.30
2023-06-12T03:39:42.177Z,47.15
2023-06-12T03:40:42.195Z,47.03
2023-06-12T03:41:42.179Z,47.03
2023-06-12T03:42:42.133Z,47.21
2023-06-12T03:43:42.201Z,46.98
2023-06-12T03:44:42.189Z,46.92
2023-06-12T03:45:42.177Z,46.92
2023-06-12T03:46:42.308Z,46.55
2023-06-12T03:47:42.230Z,46.43
2023-06-12T03:48:42.214Z,46.42
2023-06-12T03:50:42.179Z,46.68
2023-06-12T03:51:42.199Z,46.64
2023-06-12T03:52:42.192Z,46.69
2023-06-12T03:53:42.233Z,46.96
2023-06-12T03:54:42.201Z,46.96
2023-06-12T03:55:42.174Z,47.02
2023-06-12T03:56:42.231Z,46.84
2023-06-12T03:57:42.208Z,46.76
2023-06-12T03:58:42.182Z,46.51
2023-06-12T03:59:42.222Z,46.99
2023-06-12T04:00:42.211Z,46.99
2023-06-12T04:01:42.256Z,47.16
2023-06-12T04:02:42.382Z,47.30
2023-06-12T04:03:42.377Z,47.46
2023-06-12T04:04:42.265Z,47.68
2023-06-12T04:05:43.538Z,47.61
2023-06-12T04:06:43.805Z,47.66
2023-06-12T04:07:42.243Z,47.78
2023-06-12T04:08:42.256Z,48.13
2023-06-12T04:09:42.244Z,47.99
2023-06-12T04:10:42.221Z,47.99
2023-06-12T04:11:42.231Z,48.01
2023-06-12T04:13:42.260Z,47.92
2023-06-12T04:14:42.267Z,48.01
2023-06-12T04:15:42.289Z,47.86
2023-06-12T04:16:42.243Z,47.70
2023-06-12T04:17:42.327Z,47.73
2023-06-12T04:18:42.266Z,47.83
2023-06-12T04:19:42.257Z,47.71
2023-06-12T04:20:42.309Z,47.76
2023-06-12T04:21:42.306Z,47.53
2023-06-12T04:22:42.345Z,47.53
2023-06-12T04:23:42.382Z,47.43
2023-06-12T04:24:42.288Z,47.42
2023-06-12T04:25:42.288Z,47.21
2023-06-12T04:26:42.281Z,47.21
2023-06-12T04:27:42.282Z,47.21
2023-06-12T04:29:42.258Z,47.20
2023-06-12T04:30:42.312Z,47.23
2023-06-12T04:31:42.394Z,47.21
2023-06-12T04:32:42.329Z,47.21
2023-06-12T04:33:42.302Z,47.26
2023-06-12T04:34:42.362Z,47.07
2023-06-12T04:35:42.395Z,47.07
2023-06-12T04:36:42.321Z,46.96
2023-06-12T04:37:42.313Z,46.96
2023-06-12T04:38:42.367Z,46.93
2023-06-12T04:39:42.349Z,46.93
2023-06-12T04:40:42.332Z,46.96
2023-06-12T04:41:42.331Z,47.05
2023-06-12T04:42:42.319Z,46.83
2023-06-12T04:43:42.330Z,46.20
2023-06-12T04:44:42.341Z,46.20
2023-06-12T04:45:42.330Z,46.19
2023-06-12T04:46:42.403Z,46.44
2023-06-12T04:47:42.352Z,46.08
2023-06-12T04:48:42.426Z,46.08
2023-06-12T04:49:42.353Z,45.92
2023-06-12T04:51:42.376Z,45.64
2023-06-12T04:52:42.377Z,45.68
2023-06-12T04:53:42.351Z,45.78
2023-06-12T04:54:42.409Z,45.21
2023-06-12T04:55:42.363Z,45.32
2023-06-12T04:56:42.378Z,45.15
2023-06-12T04:57:42.373Z,45.27
2023-06-12T04:58:42.334Z,45.07
2023-06-12T04:59:42.382Z,44.69
2023-06-12T05:00:42.398Z,44.63
2023-06-12T05:01:42.382Z,44.75
2023-06-12T05:02:42.467Z,44.75
2023-06-12T05:03:42.392Z,44.75
2023-06-12T05:04:42.443Z,44.79
2023-06-12T05:06:42.413Z,45.15
2023-06-12T05:07:42.416Z,45.15
2023-06-12T05:08:42.372Z,45.33
2023-06-12T05:09:42.423Z,45.01
2023-06-12T05:10:42.426Z,44.73
2023-06-12T05:11:42.384Z,44.79
2023-06-12T05:12:42.465Z,44.34
2023-06-12T05:14:42.410Z,44.46
2023-06-12T05:15:42.412Z,44.61
2023-06-12T05:16:42.449Z,44.59
2023-06-12T05:17:42.461Z,44.58
2023-06-12T05:18:42.457Z,44.59
2023-06-12T05:19:42.439Z,44.45
2023-06-12T05:20:42.430Z,44.38
2023-06-12T05:21:42.392Z,44.38
2023-06-12T05:22:42.434Z,43.69
2023-06-12T05:23:42.443Z,43.98
2023-06-12T05:24:42.483Z,43.40
2023-06-12T05:25:42.450Z,43.49
2023-06-12T05:26:42.491Z,43.01
2023-06-12T05:27:42.452Z,43.01
2023-06-12T05:28:42.466Z,42.95
2023-06-12T05:29:42.432Z,43.08
2023-06-12T05:30:42.490Z,43.00
2023-06-12T05:31:42.475Z,42.95
2023-06-12T05:32:42.529Z,43.13
2023-06-12T05:33:44.093Z,43.04
2023-06-12T05:34:42.459Z,42.73
2023-06-12T05:35:42.518Z,42.78
2023-06-12T05:36:42.510Z,42.66
2023-06-12T05:37:42.441Z,42.66
2023-06-12T05:38:42.480Z,42.60
2023-06-12T05:39:42.515Z,42.09
2023-06-12T05:40:42.487Z,42.34
2023-06-12T05:41:42.509Z,42.34
2023-06-12T05:42:42.459Z,42.52
2023-06-12T05:43:42.536Z,42.57
2023-06-12T05:44:42.527Z,42.23
2023-06-12T05:45:42.489Z,42.53
2023-06-12T05:46:42.589Z,42.59
2023-06-12T05:47:42.498Z,42.56
2023-06-12T05:48:42.495Z,42.24
2023-06-12T05:49:44.033Z,42.24
2023-06-12T05:50:42.518Z,42.45
2023-06-12T05:51:43.786Z,42.06
2023-06-12T05:52:42.539Z,42.06
2023-06-12T05:53:42.538Z,41.65
2023-06-12T05:55:42.560Z,41.80
2023-06-12T05:56:42.542Z,41.80
2023-06-12T05:57:42.528Z,41.26
2023-06-12T05:58:42.534Z,41.26
2023-06-12T05:59:42.564Z,41.68
2023-06-12T06:00:42.507Z,41.68
2023-06-12T06:01:42.544Z,41.50
2023-06-12T06:02:42.589Z,41.35
2023-06-12T06:03:42.702Z,41.35
2023-06-12T06:04:43.254Z,41.63
2023-06-12T06:05:42.550Z,41.61
2023-06-12T06:06:42.544Z,41.61
2023-06-12T06:07:42.557Z,41.68
2023-06-12T06:08:42.516Z,41.37
2023-06-12T06:09:42.587Z,41.04
2023-06-12T06:10:42.571Z,40.60
2023-06-12T06:11:42.574Z,40.71
2023-06-12T06:12:42.625Z,40.71
2023-06-12T06:13:42.555Z,40.82
2023-06-12T06:14:42.589Z,40.99
2023-06-12T06:15:42.598Z,40.91
2023-06-12T06:16:54.083Z,40.91
2023-06-12T06:17:42.683Z,40.99
2023-06-12T06:19:42.617Z,41.31
2023-06-12T06:20:42.638Z,41.31
2023-06-12T06:21:42.547Z,41.05
2023-06-12T06:22:42.586Z,41.01
2023-06-12T06:23:42.676Z,40.91
2023-06-12T06:24:42.594Z,40.91
2023-06-12T06:25:42.599Z,41.06
2023-06-12T06:26:42.602Z,40.85
2023-06-12T06:27:42.614Z,40.98
2023-06-12T06:28:42.621Z,40.72
2023-06-12T06:29:42.582Z,40.47
2023-06-12T06:30:42.604Z,40.27
2023-06-12T06:31:42.866Z,40.27
2023-06-12T06:32:42.651Z,39.85
2023-06-12T06:33:42.665Z,39.80
2023-06-12T06:34:42.581Z,39.80
2023-06-12T06:35:42.647Z,39.38
2023-06-12T06:36:42.659Z,39.38
2023-06-12T06:37:42.593Z,39.64
2023-06-12T06:38:42.625Z,39.39
2023-06-12T06:39:42.644Z,39.39
2023-06-12T06:40:42.647Z,39.18
2023-06-12T06:42:42.624Z,39.02
2023-06-12T06:43:42.641Z,39.11
2023-06-12T06:44:42.659Z,39.28
2023-06-12T06:45:42.708Z,39.28
2023-06-12T06:46:42.722Z,38.88
2023-06-12T06:47:42.656Z,38.88
2023-06-12T06:48:42.681Z,38.77
2023-06-12T06:49:42.653Z,38.67
2023-06-12T06:50:42.628Z,38.55
2023-06-12T06:51:42.680Z,38.53
2023-06-12T06:52:42.680Z,38.33
2023-06-12T06:53:42.678Z,38.35
2023-06-12T06:54:42.668Z,38.17
2023-06-12T06:55:42.656Z,37.93
2023-06-12T06:56:42.703Z,37.38
2023-06-12T06:57:42.676Z,37.67
2023-06-12T06:58:42.675Z,37.67
2023-06-12T06:59:42.721Z,37.71
2023-06-12T07:00:42.655Z,37.53
2023-06-12T07:01:42.777Z,37.72
2023-06-12T07:02:42.819Z,37.38
2023-06-12T07:03:42.780Z,37.38
2023-06-12T07:04:42.727Z,36.96
2023-06-12T07:05:42.726Z,37.09
2023-06-12T07:06:42.711Z,37.40
2023-06-12T07:07:59.877Z,37.40
2023-06-12T07:08:42.752Z,37.11
2023-06-12T07:09:42.709Z,37.31
2023-06-12T07:10:42.738Z,37.46
2023-06-12T07:11:42.716Z,37.46
2023-06-12T07:12:42.754Z,37.00
2023-06-12T07:13:42.733Z,37.00
2023-06-12T07:14:42.747Z,36.83
2023-06-12T07:15:42.778Z,36.44
2023-06-12T07:16:42.862Z,36.44
2023-06-12T07:17:42.875Z,36.22
2023-06-12T07:18:42.758Z,36.22
2023-06-12T07:19:42.764Z,35.80
2023-06-12T07:20:42.738Z,35.35
2023-06-12T07:21:42.712Z,35.47
2023-06-12T07:22:42.754Z,35.11
2023-06-12T07:23:45.253Z,35.11
2023-06-12T07:24:42.752Z,34.28
2023-06-12T07:26:42.757Z,34.05
2023-06-12T07:27:42.766Z,34.01
2023-06-12T07:28:42.789Z,34.47
2023-06-12T07:29:42.754Z,34.22
2023-06-12T07:30:42.801Z,34.74
2023-06-12T07:31:43.022Z,34.58
2023-06-12T07:32:42.848Z,34.59
2023-06-12T07:33:42.766Z,34.59
2023-06-12T07:34:42.773Z,34.35
2023-06-12T07:35:42.807Z,34.10
2023-06-12T07:36:42.820Z,34.14
2023-06-12T07:37:42.790Z,34.16
2023-06-12T07:38:42.916Z,33.72
2023-06-12T07:39:42.815Z,33.59
2023-06-12T07:40:42.820Z,33.26
2023-06-12T07:41:42.817Z,32.75
2023-06-12T07:42:42.789Z,32.83
2023-06-12T07:43:42.828Z,33.43
2023-06-12T07:44:42.804Z,33.43
2023-06-12T07:45:42.805Z,33.61
2023-06-12T07:46:42.846Z,33.81
2023-06-12T07:47:42.807Z,33.82
2023-06-12T07:48:42.851Z,33.86
2023-06-12T07:49:42.823Z,33.86
2023-06-12T07:50:42.791Z,33.61
2023-06-12T07:51:42.839Z,33.43
2023-06-12T07:52:42.815Z,33.28
2023-06-12T07:53:42.794Z,33.95
2023-06-12T07:54:42.833Z,33.59
2023-06-12T07:55:42.803Z,33.59
2023-06-12T07:56:42.870Z,32.94
2023-06-12T07:57:42.840Z,32.94
2023-06-12T07:58:42.841Z,32.36
2023-06-12T07:59:42.848Z,32.36
2023-06-12T08:00:42.821Z,32.71
2023-06-12T08:01:42.861Z,32.46
2023-06-12T08:02:43.061Z,32.10
2023-06-12T08:03:42.898Z,31.81
2023-06-12T08:04:42.897Z,31.81
2023-06-12T08:05:42.813Z,31.73
2023-06-12T08:06:42.939Z,31.46
2023-06-12T08:07:42.864Z,31.14
2023-06-12T08:08:42.881Z,31.07
2023-06-12T08:09:42.892Z,31.23
2023-06-12T08:10:42.867Z,31.23
2023-06-12T08:11:42.906Z,31.11
2023-06-12T08:12:42.908Z,30.97
2023-06-12T08:13:42.875Z,30.92
2023-06-12T08:14:42.903Z,30.38
2023-06-12T08:15:42.905Z,30.38
2023-06-12T08:16:43.034Z,30.49
2023-06-12T08:17:42.982Z,30.49
2023-06-12T08:18:42.872Z,30.36
2023-06-12T08:19:42.890Z,30.11
2023-06-12T08:20:42.938Z,30.46
2023-06-12T08:21:42.906Z,30.51
2023-06-12T08:22:42.893Z,30.74
2023-06-12T08:23:42.961Z,30.45
2023-06-12T08:24:42.934Z,30.60
2023-06-12T08:25:42.916Z,30.49
2023-06-12T08:26:42.897Z,30.49
2023-06-12T08:27:42.956Z,30.83
2023-06-12T08:28:42.954Z,30.74
2023-06-12T08:29:42.953Z,30.74
2023-06-12T08:30:42.948Z,30.67
2023-06-12T08:31:42.893Z,30.46
2023-06-12T08:32:44.433Z,30.17
2023-06-12T08:33:42.939Z,30.17
2023-06-12T08:34:42.911Z,30.34
2023-06-12T08:35:42.954Z,30.33
2023-06-12T08:36:42.970Z,30.55
2023-06-12T08:37:42.983Z,30.45
2023-06-12T08:38:42.945Z,30.00
2023-06-12T08:39:42.932Z,30.00
2023-06-12T08:40:43.012Z,29.82
2023-06-12T08:41:42.936Z,29.77
2023-06-12T08:42:42.973Z,29.63
2023-06-12T08:43:42.954Z,29.11
2023-06-12T08:44:42.943Z,29.11
2023-06-12T08:45:43.009Z,29.43
2023-06-12T08:46:43.018Z,29.38
2023-06-12T08:47:42.960Z,29.85
2023-06-12T08:48:43.002Z,29.45
2023-06-12T08:49:43.003Z,29.37
2023-06-12T08:50:44.212Z,29.37
2023-06-12T08:51:43.115Z,29.01
2023-06-12T08:52:42.953Z,29.01
2023-06-12T08:53:43.010Z,29.07
2023-06-12T08:54:43.002Z,28.79
2023-06-12T08:56:43.023Z,28.80
2023-06-12T08:57:43.014Z,28.80
2023-06-12T08:58:43.035Z,28.83
2023-06-12T08:59:43.038Z,28.89
2023-06-12T09:00:43.015Z,29.01
2023-06-12T09:01:43.072Z,28.75
2023-06-12T09:02:43.110Z,28.21
2023-06-12T09:03:43.128Z,28.66
2023-06-12T09:04:43.182Z,28.66
2023-06-12T09:05:43.061Z,29.16
2023-06-12T09:06:43.016Z,29.05
2023-06-12T09:07:43.072Z,29.21
2023-06-12T09:08:43.004Z,29.29
2023-06-12T09:09:43.090Z,29.29
2023-06-12T09:10:43.038Z,28.96
2023-06-12T09:11:43.041Z,28.63
2023-06-12T09:12:43.038Z,28.33
2023-06-12T09:13:43.036Z,28.50
2023-06-12T09:14:43.055Z,28.32
2023-06-12T09:15:43.079Z,28.79
2023-06-12T09:16:43.091Z,28.79
2023-06-12T09:17:43.094Z,29.30
2023-06-12T09:18:43.117Z,29.79
2023-06-12T09:19:43.055Z,29.92
2023-06-12T09:21:43.074Z,29.61
2023-06-12T09:22:43.065Z,29.88
2023-06-12T09:23:43.094Z,29.88
2023-06-12T09:24:43.109Z,29.57
2023-06-12T09:25:49.898Z,28.96
2023-06-12T09:26:43.041Z,29.35
2023-06-12T09:27:43.075Z,29.62
2023-06-12T09:28:43.114Z,29.73
2023-06-12T09:30:43.095Z,29.73
2023-06-12T09:31:43.106Z,29.81
2023-06-12T09:32:43.174Z,30.22
2023-06-12T09:33:43.089Z,29.42
2023-06-12T09:34:43.117Z,29.58
2023-06-12T09:35:43.128Z,29.40
2023-06-12T09:37:43.107Z,29.49
2023-06-12T09:38:43.129Z,29.61
2023-06-12T09:39:43.103Z,29.61
2023-06-12T09:40:43.179Z,29.38
2023-06-12T09:41:43.126Z,29.38
2023-06-12T09:42:43.125Z,29.50
2023-06-12T09:43:43.157Z,29.50
2023-06-12T09:44:43.092Z,28.94
2023-06-12T09:45:43.151Z,28.78
2023-06-12T09:46:43.148Z,28.85
2023-06-12T09:47:43.238Z,28.85
2023-06-12T09:49:43.101Z,29.34
2023-06-12T09:50:43.156Z,29.68
2023-06-12T09:51:43.144Z,29.47
2023-06-12T09:52:43.155Z,29.53
2023-06-12T09:53:43.152Z,29.61
2023-06-12T09:54:43.119Z,29.75
2023-06-12T09:55:43.157Z,29.54
2023-06-12T09:56:43.156Z,29.77
2023-06-12T09:57:43.127Z,29.82
2023-06-12T09:58:43.161Z,30.18
2023-06-12T09:59:43.167Z,30.41
2023-06-12T10:00:43.177Z,30.41
2023-06-12T10:01:43.260Z,30.01
2023-06-12T10:02:43.134Z,30.01
2023-06-12T10:04:43.166Z,29.38
2023-06-12T10:05:43.160Z,29.75
2023-06-12T10:06:43.190Z,29.59
2023-06-12T10:07:43.204Z,29.64
2023-06-12T10:08:43.211Z,30.33
2023-06-12T10:09:43.186Z,29.98
2023-06-12T10:10:43.170Z,29.98
2023-06-12T10:11:43.213Z,30.25
2023-06-12T10:12:43.189Z,30.44
2023-06-12T10:13:43.211Z,30.44
2023-06-12T10:14:43.217Z,30.11
2023-06-12T10:15:43.185Z,30.52
2023-06-12T10:16:43.249Z,30.35
2023-06-12T10:17:43.240Z,30.32
2023-06-12T10:18:43.192Z,30.32
2023-06-12T10:19:43.246Z,30.13
2023-06-12T10:20:43.226Z,29.38
2023-06-12T10:21:43.234Z,29.38
2023-06-12T10:23:43.292Z,29.42
2023-06-12T10:24:43.240Z,28.81
2023-06-12T10:25:43.238Z,28.81
2023-06-12T10:26:43.243Z,28.29
2023-06-12T10:27:43.242Z,28.29
2023-06-12T10:28:43.207Z,28.39
2023-06-12T10:29:43.278Z,28.45
2023-06-12T10:30:43.247Z,28.69
2023-06-12T10:31:43.247Z,28.88
2023-06-12T10:32:43.317Z,28.74
2023-06-12T10:33:43.225Z,28.72
2023-06-12T10:34:43.257Z,28.51
2023-06-12T10:35:43.267Z,28.51
2023-06-12T10:36:43.303Z,28.38
2023-06-12T10:37:43.275Z,28.62
2023-06-12T10:38:43.267Z,28.86
2023-06-12T10:39:43.294Z,28.86
2023-06-12T10:40:49.371Z,29.75
2023-06-12T10:41:43.302Z,29.75
2023-06-12T10:42:43.292Z,30.37
2023-06-12T10:43:58.769Z,30.50
2023-06-12T10:44:43.281Z,30.78
2023-06-12T10:45:43.389Z,30.83
2023-06-12T10:47:43.331Z,30.45
2023-06-12T10:48:43.332Z,30.46
2023-06-12T10:49:43.303Z,30.56
2023-06-12T10:50:43.339Z,30.49
2023-06-12T10:52:43.315Z,29.83
2023-06-12T10:53:43.339Z,30.16
2023-06-12T10:54:43.321Z,30.36
2023-06-12T10:55:43.344Z,29.70
2023-06-12T10:56:43.401Z,29.79
2023-06-12T10:57:43.342Z,29.14
2023-06-12T10:58:43.358Z,29.14
2023-06-12T10:59:43.431Z,29.25
2023-06-12T11:00:43.362Z,29.01
2023-06-12T11:01:43.366Z,29.00
2023-06-12T11:02:43.416Z,29.00
2023-06-12T11:03:43.683Z,28.98
2023-06-12T11:04:43.386Z,28.69
2023-06-12T11:05:43.360Z,29.09
2023-06-12T11:06:43.344Z,28.94
2023-06-12T11:07:43.328Z,28.94
2023-06-12T11:08:43.373Z,29.46
2023-06-12T11:09:43.411Z,29.46
2023-06-12T11:10:43.356Z,28.92
2023-06-12T11:11:43.357Z,28.70
2023-06-12T11:13:43.360Z,28.90
2023-06-12T11:14:43.380Z,29.29
2023-06-12T11:15:43.333Z,28.79
2023-06-12T11:16:43.406Z,28.88
2023-06-12T11:17:43.378Z,28.83
2023-06-12T11:18:43.380Z,28.10
2023-06-12T11:19:43.392Z,28.06
2023-06-12T11:20:43.391Z,28.06
2023-06-12T11:21:43.392Z,28.15
2023-06-12T11:22:43.426Z,28.15
2023-06-12T11:23:43.536Z,27.88
2023-06-12T11:24:43.472Z,27.64
2023-06-12T11:25:43.587Z,28.08
2023-06-12T11:26:43.426Z,28.08
2023-06-12T11:27:43.488Z,28.18
2023-06-12T11:29:56.502Z,28.29
2023-06-12T11:31:02.343Z,28.25
2023-06-12T11:31:43.385Z,28.55
2023-06-12T11:32:43.443Z,27.54
2023-06-12T11:33:43.414Z,27.54
2023-06-12T11:34:43.418Z,27.64
2023-06-12T11:36:43.404Z,27.75
2023-06-12T11:40:43.452Z,27.27
2023-06-12T11:41:43.406Z,27.44
2023-06-12T11:42:43.464Z,27.63
2023-06-12T11:43:43.474Z,26.66
2023-06-12T11:44:43.465Z,26.66
2023-06-12T11:45:43.464Z,27.21
2023-06-12T11:46:43.485Z,27.19
2023-06-12T11:49:43.507Z,26.48
2023-06-12T11:50:43.451Z,26.80
2023-06-12T11:51:43.464Z,26.39
2023-06-12T11:52:44.556Z,26.15
2023-06-12T11:53:43.493Z,26.39
2023-06-12T11:58:43.474Z,26.22
2023-06-12T11:59:43.449Z,26.22
2023-06-12T12:00:43.491Z,26.41
2023-06-12T12:01:43.551Z,25.85
2023-06-12T12:02:43.484Z,25.96
2023-06-12T12:03:43.530Z,25.68
2023-06-12T12:04:43.580Z,25.68
2023-06-12T12:05:43.507Z,26.23
2023-06-12T12:06:43.498Z,26.23
2023-06-12T12:07:43.485Z,26.23
2023-06-12T12:08:43.515Z,25.56
2023-06-12T12:09:43.545Z,25.81
2023-06-12T12:11:43.538Z,26.00
2023-06-12T12:12:43.519Z,26.22
2023-06-12T12:13:43.525Z,26.10
2023-06-12T12:14:43.546Z,25.83
2023-06-12T12:15:43.535Z,25.86
2023-06-12T12:16:43.526Z,25.41
2023-06-12T12:17:43.601Z,25.20
2023-06-12T12:18:43.537Z,25.55
2023-06-12T12:19:43.561Z,25.55
2023-06-12T12:20:43.531Z,24.75
2023-06-12T12:21:43.508Z,24.77
2023-06-12T12:22:43.629Z,24.32
2023-06-12T12:23:43.636Z,24.89
2023-06-12T12:24:43.592Z,25.32
2023-06-12T12:25:43.528Z,25.48
2023-06-12T12:26:43.569Z,24.59
2023-06-12T12:27:43.577Z,25.20
2023-06-12T12:28:43.546Z,25.20
2023-06-12T12:29:58.774Z,24.94
2023-06-12T12:30:43.569Z,24.68
2023-06-12T12:31:46.125Z,24.84
2023-06-12T12:32:43.608Z,24.84
2023-06-12T12:33:43.572Z,24.86
2023-06-12T12:34:43.648Z,24.89
2023-06-12T12:35:43.596Z,25.38
2023-06-12T12:36:43.605Z,24.81
2023-06-12T12:37:43.585Z,24.60
2023-06-12T12:38:43.581Z,24.60
2023-06-12T12:39:43.607Z,24.70
2023-06-12T12:40:43.589Z,24.86
2023-06-12T12:41:43.589Z,24.65
2023-06-12T12:42:43.641Z,24.44
2023-06-12T12:43:43.615Z,24.58
2023-06-12T12:44:43.648Z,24.84
2023-06-12T12:45:43.644Z,24.82
2023-06-12T12:46:43.604Z,24.82
2023-06-12T12:47:43.709Z,24.90
2023-06-12T12:48:43.868Z,24.82
2023-06-12T12:49:49.118Z,25.07
2023-06-12T12:50:56.881Z,25.09
2023-06-12T12:51:43.581Z,25.63
2023-06-12T12:52:43.660Z,25.48
2023-06-12T12:53:44.518Z,25.35
2023-06-12T12:54:43.625Z,25.35
2023-06-12T12:55:43.641Z,25.59
2023-06-12T12:56:43.638Z,24.75
2023-06-12T12:57:43.688Z,24.38
2023-06-12T12:58:43.701Z,24.47
2023-06-12T12:59:43.602Z,25.03
2023-06-12T13:00:43.721Z,24.50
2023-06-12T13:01:43.642Z,24.52
2023-06-12T13:02:43.837Z,24.52
2023-06-12T13:03:43.756Z,24.11
2023-06-12T13:04:43.615Z,24.11
2023-06-12T13:05:43.687Z,24.27
2023-06-12T13:06:43.663Z,24.75
2023-06-12T13:07:43.659Z,24.75
2023-06-12T13:08:43.665Z,24.10
2023-06-12T13:09:43.690Z,24.10
2023-06-12T13:10:43.694Z,24.49
2023-06-12T13:11:43.692Z,24.49
2023-06-12T13:12:43.663Z,24.69
2023-06-12T13:13:43.706Z,24.71
2023-06-12T13:14:43.716Z,25.30
2023-06-12T13:15:43.713Z,25.18
2023-06-12T13:16:43.747Z,25.18
2023-06-12T13:17:43.696Z,25.28
2023-06-12T13:18:45.635Z,25.24
2023-06-12T13:19:43.689Z,25.23
2023-06-12T13:20:43.673Z,25.43
2023-06-12T13:21:43.717Z,25.52
2023-06-12T13:22:43.698Z,25.52
2023-06-12T13:23:43.740Z,25.33
2023-06-12T13:24:43.709Z,24.99
2023-06-12T13:25:43.659Z,24.99
2023-06-12T13:26:43.723Z,25.09
2023-06-12T13:27:43.716Z,25.14
2023-06-12T13:28:43.710Z,25.45
2023-06-12T13:29:43.755Z,25.09
2023-06-12T13:31:43.761Z,25.30
2023-06-12T13:32:43.834Z,24.74
2023-06-12T13:33:43.704Z,24.74
2023-06-12T13:36:43.738Z,24.53
2023-06-12T13:37:43.748Z,24.53
2023-06-12T13:38:43.721Z,24.96
2023-06-12T13:39:43.813Z,24.83
2023-06-12T13:40:43.764Z,25.22
2023-06-12T13:42:43.789Z,25.09
2023-06-12T13:43:43.768Z,25.17
2023-06-12T13:44:43.819Z,25.17
2023-06-12T13:45:43.840Z,25.45
2023-06-12T13:46:43.788Z,24.73
2023-06-12T13:47:43.835Z,24.88
2023-06-12T13:48:43.797Z,24.84
2023-06-12T13:49:43.803Z,24.49
2023-06-12T13:50:43.791Z,24.83
2023-06-12T13:51:43.765Z,24.83
2023-06-12T13:52:43.788Z,24.81
2023-06-12T13:53:43.816Z,24.94
2023-06-12T13:54:43.761Z,24.94
2023-06-12T13:55:43.796Z,24.74
2023-06-12T13:57:43.812Z,25.37
2023-06-12T13:58:43.829Z,25.37
2023-06-12T13:59:43.799Z,24.94
2023-06-12T14:00:43.832Z,25.13
2023-06-12T14:01:43.882Z,25.29
2023-06-12T14:02:43.900Z,25.32
2023-06-12T14:03:43.832Z,25.16
2023-06-12T14:04:43.945Z,24.96
2023-06-12T14:05:43.830Z,25.08
2023-06-12T14:07:43.883Z,24.58
2023-06-12T14:08:43.861Z,24.36
2023-06-12T14:09:43.865Z,24.36
2023-06-12T14:10:43.877Z,24.71
2023-06-12T14:11:43.860Z,24.37
2023-06-12T14:12:43.832Z,24.51
2023-06-12T14:13:43.872Z,24.78